sensor_id;sensor_type;location;lat;lon;timestamp;temperature;humidity
27016;DHT22;14557;0.000;0.000;2023-02-28T00:01:31;19.70;61.30
27016;DHT22;14557;0.000;0.000;2023-02-28T00:03:57;19.60;61.30
27016;DHT22;14557;0.000;0.000;2023-02-28T00:06:24;19.60;61.10
27016;DHT22;14557;0.000;0.000;2023-02-28T00:08:50;19.60;61.10
27016;DHT22;14557;0.000;0.000;2023-02-28T00:11:16;19.60;61.00
27016;DHT22;14557;0.000;0.000;2023-02-28T00:13:44;19.60;61.10
27016;DHT22;14557;0.000;0.000;2023-02-28T00:16:15;19.60;61.10
27016;DHT22;14557;0.000;0.000;2023-02-28T00:18:42;19.60;61.10
27016;DHT22;14557;0.000;0.000;2023-02-28T00:21:08;19.60;61.00
27016;DHT22;14557;0.000;0.000;2023-02-28T00:23:35;19.60;61.00
27016;DHT22;14557;0.000;0.000;2023-02-28T00:26:01;19.60;61.00
27016;DHT22;14557;0.000;0.000;2023-02-28T00:28:26;19.60;60.90
27016;DHT22;14557;0.000;0.000;2023-02-28T00:30:52;19.60;60.90
27016;DHT22;14557;0.000;0.000;2023-02-28T00:33:18;19.50;60.90
27016;DHT22;14557;0.000;0.000;2023-02-28T00:35:44;19.50;60.90
27016;DHT22;14557;0.000;0.000;2023-02-28T00:38:12;19.50;60.90
27016;DHT22;14557;0.000;0.000;2023-02-28T00:40:38;19.50;60.90
27016;DHT22;14557;0.000;0.000;2023-02-28T00:43:04;19.50;60.80
27016;DHT22;14557;0.000;0.000;2023-02-28T00:45:30;19.50;60.90
27016;DHT22;14557;0.000;0.000;2023-02-28T00:47:55;19.50;60.80
27016;DHT22;14557;0.000;0.000;2023-02-28T00:50:21;19.50;60.80
27016;DHT22;14557;0.000;0.000;2023-02-28T00:52:47;19.50;60.80
27016;DHT22;14557;0.000;0.000;2023-02-28T00:55:13;19.50;60.80
27016;DHT22;14557;0.000;0.000;2023-02-28T00:57:39;19.40;60.70
27016;DHT22;14557;0.000;0.000;2023-02-28T01:00:06;19.40;60.60
27016;DHT22;14557;0.000;0.000;2023-02-28T01:02:32;19.40;60.70
27016;DHT22;14557;0.000;0.000;2023-02-28T01:04:58;19.40;60.60
27016;DHT22;14557;0.000;0.000;2023-02-28T01:07:24;19.40;60.60
27016;DHT22;14557;0.000;0.000;2023-02-28T01:09:49;19.40;60.50
27016;DHT22;14557;0.000;0.000;2023-02-28T01:12:15;19.40;60.50
27016;DHT22;14557;0.000;0.000;2023-02-28T01:14:42;19.40;60.50
27016;DHT22;14557;0.000;0.000;2023-02-28T01:17:08;19.40;60.50
27016;DHT22;14557;0.000;0.000;2023-02-28T01:19:34;19.40;60.50
27016;DHT22;14557;0.000;0.000;2023-02-28T01:22:02;19.40;60.50
27016;DHT22;14557;0.000;0.000;2023-02-28T01:24:34;19.30;60.30
27016;DHT22;14557;0.000;0.000;2023-02-28T01:26:59;19.30;60.30
27016;DHT22;14557;0.000;0.000;2023-02-28T01:29:25;19.30;60.30
27016;DHT22;14557;0.000;0.000;2023-02-28T01:31:51;19.30;60.20
27016;DHT22;14557;0.000;0.000;2023-02-28T01:34:16;19.30;60.20
27016;DHT22;14557;0.000;0.000;2023-02-28T01:36:44;19.30;60.20
27016;DHT22;14557;0.000;0.000;2023-02-28T01:39:10;19.30;60.20
27016;DHT22;14557;0.000;0.000;2023-02-28T01:41:36;19.30;60.20
27016;DHT22;14557;0.000;0.000;2023-02-28T01:44:53;19.30;60.10
27016;DHT22;14557;0.000;0.000;2023-02-28T01:46:52;19.30;60.10
27016;DHT22;14557;0.000;0.000;2023-02-28T01:49:18;19.30;60.20
27016;DHT22;14557;0.000;0.000;2023-02-28T01:51:55;19.30;60.20
27016;DHT22;14557;0.000;0.000;2023-02-28T01:54:26;19.30;60.20
27016;DHT22;14557;0.000;0.000;2023-02-28T01:57:10;19.20;60.10
27016;DHT22;14557;0.000;0.000;2023-02-28T02:00:03;19.20;60.10
27016;DHT22;14557;0.000;0.000;2023-02-28T02:02:30;19.20;60.10
27016;DHT22;14557;0.000;0.000;2023-02-28T02:05:17;19.20;60.00
27016;DHT22;14557;0.000;0.000;2023-02-28T02:07:47;19.20;60.10
27016;DHT22;14557;0.000;0.000;2023-02-28T02:15:26;19.20;60.00
27016;DHT22;14557;0.000;0.000;2023-02-28T02:17:58;19.20;60.00
27016;DHT22;14557;0.000;0.000;2023-02-28T02:31:54;19.10;59.80
27016;DHT22;14557;0.000;0.000;2023-02-28T02:34:36;19.10;59.80
27016;DHT22;14557;0.000;0.000;2023-02-28T02:40:07;19.10;59.80
27016;DHT22;14557;0.000;0.000;2023-02-28T02:45:42;19.10;59.70
27016;DHT22;14557;0.000;0.000;2023-02-28T02:48:15;19.00;59.60
27016;DHT22;14557;0.000;0.000;2023-02-28T02:50:50;19.00;59.60
27016;DHT22;14557;0.000;0.000;2023-02-28T02:53:18;19.00;59.60
27016;DHT22;14557;0.000;0.000;2023-02-28T02:55:49;19.00;59.60
27016;DHT22;14557;0.000;0.000;2023-02-28T02:58:22;19.00;59.60
27016;DHT22;14557;0.000;0.000;2023-02-28T03:00:53;19.00;59.60
27016;DHT22;14557;0.000;0.000;2023-02-28T03:03:22;19.00;59.60
27016;DHT22;14557;0.000;0.000;2023-02-28T03:05:55;19.00;59.60
27016;DHT22;14557;0.000;0.000;2023-02-28T03:08:22;19.00;59.60
27016;DHT22;14557;0.000;0.000;2023-02-28T03:10:55;18.90;59.50
27016;DHT22;14557;0.000;0.000;2023-02-28T03:13:42;19.00;59.50
27016;DHT22;14557;0.000;0.000;2023-02-28T03:27:30;18.90;59.40
27016;DHT22;14557;0.000;0.000;2023-02-28T03:30:03;18.90;59.40
27016;DHT22;14557;0.000;0.000;2023-02-28T03:35:37;18.80;59.30
27016;DHT22;14557;0.000;0.000;2023-02-28T03:38:15;18.80;59.30
27016;DHT22;14557;0.000;0.000;2023-02-28T03:40:48;18.80;59.30
27016;DHT22;14557;0.000;0.000;2023-02-28T03:43:24;18.80;59.30
27016;DHT22;14557;0.000;0.000;2023-02-28T03:45:54;18.80;59.30
27016;DHT22;14557;0.000;0.000;2023-02-28T03:48:52;18.80;59.30
27016;DHT22;14557;0.000;0.000;2023-02-28T03:51:22;18.80;59.20
27016;DHT22;14557;0.000;0.000;2023-02-28T03:54:03;18.80;59.30
27016;DHT22;14557;0.000;0.000;2023-02-28T03:56:38;18.80;59.20
27016;DHT22;14557;0.000;0.000;2023-02-28T03:59:13;18.80;59.20
27016;DHT22;14557;0.000;0.000;2023-02-28T04:01:42;18.80;59.20
27016;DHT22;14557;0.000;0.000;2023-02-28T04:04:10;18.70;59.20
27016;DHT22;14557;0.000;0.000;2023-02-28T04:06:36;18.80;59.20
27016;DHT22;14557;0.000;0.000;2023-02-28T04:09:04;18.70;59.10
27016;DHT22;14557;0.000;0.000;2023-02-28T04:11:46;18.70;59.10
27016;DHT22;14557;0.000;0.000;2023-02-28T04:14:14;18.70;59.00
27016;DHT22;14557;0.000;0.000;2023-02-28T04:16:41;18.70;59.00
27016;DHT22;14557;0.000;0.000;2023-02-28T04:19:08;18.70;59.00
27016;DHT22;14557;0.000;0.000;2023-02-28T04:21:40;18.70;59.10
27016;DHT22;14557;0.000;0.000;2023-02-28T04:24:07;18.60;59.00
27016;DHT22;14557;0.000;0.000;2023-02-28T04:26:35;18.70;59.00
27016;DHT22;14557;0.000;0.000;2023-02-28T04:29:05;18.70;59.00
27016;DHT22;14557;0.000;0.000;2023-02-28T04:31:31;18.70;59.00
27016;DHT22;14557;0.000;0.000;2023-02-28T04:33:57;18.60;58.90
27016;DHT22;14557;0.000;0.000;2023-02-28T04:36:23;18.60;59.00
27016;DHT22;14557;0.000;0.000;2023-02-28T04:38:49;18.60;59.50
27016;DHT22;14557;0.000;0.000;2023-02-28T04:41:15;18.60;58.90
27016;DHT22;14557;0.000;0.000;2023-02-28T04:43:42;18.60;58.90
27016;DHT22;14557;0.000;0.000;2023-02-28T04:46:08;18.60;58.90
27016;DHT22;14557;0.000;0.000;2023-02-28T04:48:35;18.50;58.90
27016;DHT22;14557;0.000;0.000;2023-02-28T04:51:01;18.50;58.90
27016;DHT22;14557;0.000;0.000;2023-02-28T04:53:28;18.50;58.90
27016;DHT22;14557;0.000;0.000;2023-02-28T04:55:55;18.50;58.90
27016;DHT22;14557;0.000;0.000;2023-02-28T04:58:21;18.50;58.90
27016;DHT22;14557;0.000;0.000;2023-02-28T05:00:53;18.50;58.90
27016;DHT22;14557;0.000;0.000;2023-02-28T05:03:20;18.50;58.90
27016;DHT22;14557;0.000;0.000;2023-02-28T05:05:47;18.50;58.90
27016;DHT22;14557;0.000;0.000;2023-02-28T05:08:13;18.50;59.40
27016;DHT22;14557;0.000;0.000;2023-02-28T05:10:39;18.50;58.80
27016;DHT22;14557;0.000;0.000;2023-02-28T05:13:05;18.50;58.80
27016;DHT22;14557;0.000;0.000;2023-02-28T05:15:30;18.50;58.80
27016;DHT22;14557;0.000;0.000;2023-02-28T05:17:56;18.50;58.80
27016;DHT22;14557;0.000;0.000;2023-02-28T05:20:22;18.50;58.80
27016;DHT22;14557;0.000;0.000;2023-02-28T05:22:49;18.50;58.80
27016;DHT22;14557;0.000;0.000;2023-02-28T05:25:20;18.50;58.80
27016;DHT22;14557;0.000;0.000;2023-02-28T05:27:47;18.50;58.70
27016;DHT22;14557;0.000;0.000;2023-02-28T05:30:13;18.40;58.70
27016;DHT22;14557;0.000;0.000;2023-02-28T05:32:39;18.50;58.70
27016;DHT22;14557;0.000;0.000;2023-02-28T05:35:11;18.50;58.70
27016;DHT22;14557;0.000;0.000;2023-02-28T05:37:38;18.50;58.70
27016;DHT22;14557;0.000;0.000;2023-02-28T05:40:05;18.40;58.60
27016;DHT22;14557;0.000;0.000;2023-02-28T05:42:33;18.40;58.60
27016;DHT22;14557;0.000;0.000;2023-02-28T05:44:58;18.40;58.60
27016;DHT22;14557;0.000;0.000;2023-02-28T05:47:24;18.40;58.60
27016;DHT22;14557;0.000;0.000;2023-02-28T05:49:50;18.40;58.50
27016;DHT22;14557;0.000;0.000;2023-02-28T05:52:15;18.40;58.50
27016;DHT22;14557;0.000;0.000;2023-02-28T05:54:41;18.40;58.50
27016;DHT22;14557;0.000;0.000;2023-02-28T05:57:07;18.40;58.50
27016;DHT22;14557;0.000;0.000;2023-02-28T05:59:32;18.40;58.50
27016;DHT22;14557;0.000;0.000;2023-02-28T06:01:58;18.40;58.50
27016;DHT22;14557;0.000;0.000;2023-02-28T06:04:24;18.40;58.40
27016;DHT22;14557;0.000;0.000;2023-02-28T06:06:50;18.40;58.50
27016;DHT22;14557;0.000;0.000;2023-02-28T06:09:16;18.40;58.40
27016;DHT22;14557;0.000;0.000;2023-02-28T06:11:43;18.40;58.50
27016;DHT22;14557;0.000;0.000;2023-02-28T06:14:15;18.40;58.40
27016;DHT22;14557;0.000;0.000;2023-02-28T06:16:41;18.30;58.30
27016;DHT22;14557;0.000;0.000;2023-02-28T06:19:06;18.40;58.30
27016;DHT22;14557;0.000;0.000;2023-02-28T06:21:32;18.40;58.40
27016;DHT22;14557;0.000;0.000;2023-02-28T06:23:58;18.40;58.30
27016;DHT22;14557;0.000;0.000;2023-02-28T06:26:24;18.40;58.30
27016;DHT22;14557;0.000;0.000;2023-02-28T06:28:50;18.40;58.30
27016;DHT22;14557;0.000;0.000;2023-02-28T06:31:17;18.30;58.20
27016;DHT22;14557;0.000;0.000;2023-02-28T06:33:44;18.30;58.10
27016;DHT22;14557;0.000;0.000;2023-02-28T06:36:12;18.30;58.10
27016;DHT22;14557;0.000;0.000;2023-02-28T06:38:38;18.30;58.00
27016;DHT22;14557;0.000;0.000;2023-02-28T06:41:05;18.30;58.00
27016;DHT22;14557;0.000;0.000;2023-02-28T06:43:34;18.30;58.00
27016;DHT22;14557;0.000;0.000;2023-02-28T06:46:02;18.30;58.00
27016;DHT22;14557;0.000;0.000;2023-02-28T06:48:28;18.30;57.90
27016;DHT22;14557;0.000;0.000;2023-02-28T06:51:08;18.30;57.90
27016;DHT22;14557;0.000;0.000;2023-02-28T06:53:35;18.30;58.00
27016;DHT22;14557;0.000;0.000;2023-02-28T06:56:09;18.30;57.90
27016;DHT22;14557;0.000;0.000;2023-02-28T06:58:34;18.30;57.90
27016;DHT22;14557;0.000;0.000;2023-02-28T07:01:01;18.30;57.80
27016;DHT22;14557;0.000;0.000;2023-02-28T07:03:27;18.30;57.90
27016;DHT22;14557;0.000;0.000;2023-02-28T07:05:53;18.30;57.80
27016;DHT22;14557;0.000;0.000;2023-02-28T07:08:18;18.30;57.80
27016;DHT22;14557;0.000;0.000;2023-02-28T07:10:44;18.30;57.80
27016;DHT22;14557;0.000;0.000;2023-02-28T07:13:11;18.30;57.80
27016;DHT22;14557;0.000;0.000;2023-02-28T07:15:37;18.30;57.80
27016;DHT22;14557;0.000;0.000;2023-02-28T07:18:03;18.20;57.70
27016;DHT22;14557;0.000;0.000;2023-02-28T07:20:29;18.20;57.70
27016;DHT22;14557;0.000;0.000;2023-02-28T07:22:55;18.40;57.80
27016;DHT22;14557;0.000;0.000;2023-02-28T07:25:25;18.20;57.70
27016;DHT22;14557;0.000;0.000;2023-02-28T07:27:51;18.20;57.70
27016;DHT22;14557;0.000;0.000;2023-02-28T07:30:17;18.20;57.80
27016;DHT22;14557;0.000;0.000;2023-02-28T07:32:43;18.20;57.80
27016;DHT22;14557;0.000;0.000;2023-02-28T07:35:09;18.20;57.70
27016;DHT22;14557;0.000;0.000;2023-02-28T07:37:35;18.20;57.80
27016;DHT22;14557;0.000;0.000;2023-02-28T07:40:05;18.20;57.70
27016;DHT22;14557;0.000;0.000;2023-02-28T07:42:36;18.20;57.70
27016;DHT22;14557;0.000;0.000;2023-02-28T07:45:03;18.20;57.70
27016;DHT22;14557;0.000;0.000;2023-02-28T07:47:30;18.20;57.70
27016;DHT22;14557;0.000;0.000;2023-02-28T07:49:56;18.20;57.60
27016;DHT22;14557;0.000;0.000;2023-02-28T07:52:22;18.20;57.60
27016;DHT22;14557;0.000;0.000;2023-02-28T07:54:49;18.20;57.70
27016;DHT22;14557;0.000;0.000;2023-02-28T07:57:15;18.10;57.70
27016;DHT22;14557;0.000;0.000;2023-02-28T07:59:41;18.10;57.70
27016;DHT22;14557;0.000;0.000;2023-02-28T08:02:10;18.10;57.60
27016;DHT22;14557;0.000;0.000;2023-02-28T08:04:37;18.10;57.60
27016;DHT22;14557;0.000;0.000;2023-02-28T08:07:03;18.10;57.60
27016;DHT22;14557;0.000;0.000;2023-02-28T08:09:28;18.10;57.60
27016;DHT22;14557;0.000;0.000;2023-02-28T08:11:55;18.10;57.60
27016;DHT22;14557;0.000;0.000;2023-02-28T08:14:20;18.20;59.20
27016;DHT22;14557;0.000;0.000;2023-02-28T08:16:46;18.40;61.00
27016;DHT22;14557;0.000;0.000;2023-02-28T08:19:12;18.50;61.40
27016;DHT22;14557;0.000;0.000;2023-02-28T08:21:38;18.50;60.00
27016;DHT22;14557;0.000;0.000;2023-02-28T08:24:03;18.50;59.70
27016;DHT22;14557;0.000;0.000;2023-02-28T08:26:29;18.60;59.90
27016;DHT22;14557;0.000;0.000;2023-02-28T08:28:55;18.70;59.40
27016;DHT22;14557;0.000;0.000;2023-02-28T08:31:20;18.70;58.90
27016;DHT22;14557;0.000;0.000;2023-02-28T08:33:47;18.70;59.00
27016;DHT22;14557;0.000;0.000;2023-02-28T08:36:15;18.70;59.20
27016;DHT22;14557;0.000;0.000;2023-02-28T08:38:40;18.70;58.90
27016;DHT22;14557;0.000;0.000;2023-02-28T08:41:09;18.60;58.60
27016;DHT22;14557;0.000;0.000;2023-02-28T08:43:35;18.70;62.80
27016;DHT22;14557;0.000;0.000;2023-02-28T08:46:01;18.70;60.20
27016;DHT22;14557;0.000;0.000;2023-02-28T08:48:29;18.70;59.40
27016;DHT22;14557;0.000;0.000;2023-02-28T08:51:10;18.70;59.20
27016;DHT22;14557;0.000;0.000;2023-02-28T08:53:37;18.70;60.60
27016;DHT22;14557;0.000;0.000;2023-02-28T08:56:06;18.70;60.40
27016;DHT22;14557;0.000;0.000;2023-02-28T08:58:33;18.70;61.20
27016;DHT22;14557;0.000;0.000;2023-02-28T09:00:59;18.70;59.70
27016;DHT22;14557;0.000;0.000;2023-02-28T09:03:25;18.70;59.50
27016;DHT22;14557;0.000;0.000;2023-02-28T09:05:56;18.70;59.30
27016;DHT22;14557;0.000;0.000;2023-02-28T09:08:23;18.70;59.10
27016;DHT22;14557;0.000;0.000;2023-02-28T09:10:49;18.70;59.00
27016;DHT22;14557;0.000;0.000;2023-02-28T09:13:14;18.70;60.50
27016;DHT22;14557;0.000;0.000;2023-02-28T09:15:40;18.70;60.00
27016;DHT22;14557;0.000;0.000;2023-02-28T09:18:06;18.80;59.50
27016;DHT22;14557;0.000;0.000;2023-02-28T09:20:31;18.80;59.10
27016;DHT22;14557;0.000;0.000;2023-02-28T09:22:57;18.70;58.90
27016;DHT22;14557;0.000;0.000;2023-02-28T09:25:23;18.80;58.80
27016;DHT22;14557;0.000;0.000;2023-02-28T09:27:48;18.80;58.70
27016;DHT22;14557;0.000;0.000;2023-02-28T09:30:14;18.80;58.60
27016;DHT22;14557;0.000;0.000;2023-02-28T09:32:40;18.70;58.50
27016;DHT22;14557;0.000;0.000;2023-02-28T09:35:06;18.70;58.40
27016;DHT22;14557;0.000;0.000;2023-02-28T09:37:32;18.70;58.40
27016;DHT22;14557;0.000;0.000;2023-02-28T09:39:57;18.80;58.30
27016;DHT22;14557;0.000;0.000;2023-02-28T09:42:32;18.80;58.20
27016;DHT22;14557;0.000;0.000;2023-02-28T09:45:00;18.80;58.10
27016;DHT22;14557;0.000;0.000;2023-02-28T09:47:34;18.80;58.10
27016;DHT22;14557;0.000;0.000;2023-02-28T09:50:28;18.80;58.10
27016;DHT22;14557;0.000;0.000;2023-02-28T09:52:55;18.80;58.20
27016;DHT22;14557;0.000;0.000;2023-02-28T09:55:34;18.80;58.20
27016;DHT22;14557;0.000;0.000;2023-02-28T09:58:03;18.90;59.30
27016;DHT22;14557;0.000;0.000;2023-02-28T10:00:39;18.90;58.50
27016;DHT22;14557;0.000;0.000;2023-02-28T10:06:01;19.00;61.00
27016;DHT22;14557;0.000;0.000;2023-02-28T10:08:34;19.10;59.50
27016;DHT22;14557;0.000;0.000;2023-02-28T10:11:05;19.10;58.90
27016;DHT22;14557;0.000;0.000;2023-02-28T10:13:33;19.20;58.50
27016;DHT22;14557;0.000;0.000;2023-02-28T10:16:07;19.20;58.60
27016;DHT22;14557;0.000;0.000;2023-02-28T10:18:58;19.30;58.60
27016;DHT22;14557;0.000;0.000;2023-02-28T10:26:48;19.30;58.40
27016;DHT22;14557;0.000;0.000;2023-02-28T10:29:18;19.40;58.10
27016;DHT22;14557;0.000;0.000;2023-02-28T10:31:43;19.40;58.00
27016;DHT22;14557;0.000;0.000;2023-02-28T10:34:11;19.40;58.00
27016;DHT22;14557;0.000;0.000;2023-02-28T10:36:38;19.40;57.80
27016;DHT22;14557;0.000;0.000;2023-02-28T10:42:02;19.50;57.30
27016;DHT22;14557;0.000;0.000;2023-02-28T10:44:27;19.60;57.00
27016;DHT22;14557;0.000;0.000;2023-02-28T10:46:53;19.70;56.70
27016;DHT22;14557;0.000;0.000;2023-02-28T10:49:25;19.70;56.60
27016;DHT22;14557;0.000;0.000;2023-02-28T10:52:00;19.70;56.60
27016;DHT22;14557;0.000;0.000;2023-02-28T10:54:34;19.70;56.50
27016;DHT22;14557;0.000;0.000;2023-02-28T10:57:30;19.70;56.50
27016;DHT22;14557;0.000;0.000;2023-02-28T11:00:20;19.60;56.40
27016;DHT22;14557;0.000;0.000;2023-02-28T11:02:47;19.60;56.50
27016;DHT22;14557;0.000;0.000;2023-02-28T11:05:34;19.70;56.60
27016;DHT22;14557;0.000;0.000;2023-02-28T11:08:10;19.70;56.50
27016;DHT22;14557;0.000;0.000;2023-02-28T11:10:37;19.70;56.50
27016;DHT22;14557;0.000;0.000;2023-02-28T11:13:03;19.70;56.50
27016;DHT22;14557;0.000;0.000;2023-02-28T11:15:33;19.70;56.60
27016;DHT22;14557;0.000;0.000;2023-02-28T11:20:52;19.70;56.60
27016;DHT22;14557;0.000;0.000;2023-02-28T11:23:19;19.70;56.60
27016;DHT22;14557;0.000;0.000;2023-02-28T11:25:51;19.70;56.50
27016;DHT22;14557;0.000;0.000;2023-02-28T11:28:29;19.70;57.70
27016;DHT22;14557;0.000;0.000;2023-02-28T11:33:45;19.70;57.10
27016;DHT22;14557;0.000;0.000;2023-02-28T11:36:23;19.70;56.90
27016;DHT22;14557;0.000;0.000;2023-02-28T11:38:54;19.70;56.80
27016;DHT22;14557;0.000;0.000;2023-02-28T11:49:37;19.70;56.20
27016;DHT22;14557;0.000;0.000;2023-02-28T12:00:25;19.80;56.90
27016;DHT22;14557;0.000;0.000;2023-02-28T12:05:49;19.70;56.70
27016;DHT22;14557;0.000;0.000;2023-02-28T12:16:49;19.70;56.30
27016;DHT22;14557;0.000;0.000;2023-02-28T12:25:19;19.70;56.30
27016;DHT22;14557;0.000;0.000;2023-02-28T12:27:48;19.70;56.20
27016;DHT22;14557;0.000;0.000;2023-02-28T12:30:35;19.70;56.10
27016;DHT22;14557;0.000;0.000;2023-02-28T12:33:11;19.70;55.90
27016;DHT22;14557;0.000;0.000;2023-02-28T12:38:18;19.70;55.80
27016;DHT22;14557;0.000;0.000;2023-02-28T12:40:56;19.70;55.80
27016;DHT22;14557;0.000;0.000;2023-02-28T12:43:30;19.70;55.70
27016;DHT22;14557;0.000;0.000;2023-02-28T12:46:07;19.70;55.80
27016;DHT22;14557;0.000;0.000;2023-02-28T12:51:16;19.70;55.90
27016;DHT22;14557;0.000;0.000;2023-02-28T13:07:46;19.70;55.70
27016;DHT22;14557;0.000;0.000;2023-02-28T13:10:16;19.70;55.90
27016;DHT22;14557;0.000;0.000;2023-02-28T13:12:54;19.70;55.90
27016;DHT22;14557;0.000;0.000;2023-02-28T13:15:26;19.70;55.70
27016;DHT22;14557;0.000;0.000;2023-02-28T13:17:55;19.70;55.70
27016;DHT22;14557;0.000;0.000;2023-02-28T13:20:37;19.70;55.80
27016;DHT22;14557;0.000;0.000;2023-02-28T13:24:36;19.70;55.60
27016;DHT22;14557;0.000;0.000;2023-02-28T13:34:35;19.70;59.70
27016;DHT22;14557;0.000;0.000;2023-02-28T13:47:48;19.80;57.80
27016;DHT22;14557;0.000;0.000;2023-02-28T14:00:42;19.90;58.80
27016;DHT22;14557;0.000;0.000;2023-02-28T14:11:34;20.10;68.80
27016;DHT22;14557;0.000;0.000;2023-02-28T14:14:00;20.10;70.00
27016;DHT22;14557;0.000;0.000;2023-02-28T14:16:36;20.10;70.60
27016;DHT22;14557;0.000;0.000;2023-02-28T14:19:15;20.20;70.00
27016;DHT22;14557;0.000;0.000;2023-02-28T14:29:44;20.10;64.90
27016;DHT22;14557;0.000;0.000;2023-02-28T14:32:47;20.20;71.20
27016;DHT22;14557;0.000;0.000;2023-02-28T14:35:43;20.20;63.80
27016;DHT22;14557;0.000;0.000;2023-02-28T14:38:18;20.20;62.20
27016;DHT22;14557;0.000;0.000;2023-02-28T14:40:47;20.20;61.60
27016;DHT22;14557;0.000;0.000;2023-02-28T14:43:28;20.20;61.00
27016;DHT22;14557;0.000;0.000;2023-02-28T14:46:00;20.20;60.60
27016;DHT22;14557;0.000;0.000;2023-02-28T14:48:27;20.20;60.10
27016;DHT22;14557;0.000;0.000;2023-02-28T14:50:58;20.20;59.90
27016;DHT22;14557;0.000;0.000;2023-02-28T14:53:30;20.10;59.40
27016;DHT22;14557;0.000;0.000;2023-02-28T14:55:56;20.20;59.00
27016;DHT22;14557;0.000;0.000;2023-02-28T14:58:28;20.20;58.40
27016;DHT22;14557;0.000;0.000;2023-02-28T15:01:05;20.20;58.80
27016;DHT22;14557;0.000;0.000;2023-02-28T15:03:36;20.20;58.90
27016;DHT22;14557;0.000;0.000;2023-02-28T15:06:12;20.20;58.70
27016;DHT22;14557;0.000;0.000;2023-02-28T15:08:38;20.20;58.50
27016;DHT22;14557;0.000;0.000;2023-02-28T15:11:07;20.20;58.50
27016;DHT22;14557;0.000;0.000;2023-02-28T15:18:49;20.20;66.70
27016;DHT22;14557;0.000;0.000;2023-02-28T15:26:55;20.30;63.50
27016;DHT22;14557;0.000;0.000;2023-02-28T15:29:25;20.30;62.00
27016;DHT22;14557;0.000;0.000;2023-02-28T15:32:01;20.20;62.60
27016;DHT22;14557;0.000;0.000;2023-02-28T15:34:40;20.30;65.20
27016;DHT22;14557;0.000;0.000;2023-02-28T15:39:57;20.20;62.60
27016;DHT22;14557;0.000;0.000;2023-02-28T15:42:28;20.30;63.40
27016;DHT22;14557;0.000;0.000;2023-02-28T15:44:54;20.30;67.20
27016;DHT22;14557;0.000;0.000;2023-02-28T15:47:22;20.30;68.30
27016;DHT22;14557;0.000;0.000;2023-02-28T15:49:58;20.30;67.00
27016;DHT22;14557;0.000;0.000;2023-02-28T15:52:29;20.30;66.30
27016;DHT22;14557;0.000;0.000;2023-02-28T15:54:59;20.30;61.90
27016;DHT22;14557;0.000;0.000;2023-02-28T15:57:32;20.30;61.00
27016;DHT22;14557;0.000;0.000;2023-02-28T16:00:01;20.40;59.50
27016;DHT22;14557;0.000;0.000;2023-02-28T16:02:32;20.60;58.80
27016;DHT22;14557;0.000;0.000;2023-02-28T16:05:27;20.60;58.60
27016;DHT22;14557;0.000;0.000;2023-02-28T16:07:57;20.60;58.70
27016;DHT22;14557;0.000;0.000;2023-02-28T16:10:23;20.50;58.40
27016;DHT22;14557;0.000;0.000;2023-02-28T16:12:53;20.50;58.50
27016;DHT22;14557;0.000;0.000;2023-02-28T16:15:26;20.40;58.80
27016;DHT22;14557;0.000;0.000;2023-02-28T16:17:53;20.40;61.20
27016;DHT22;14557;0.000;0.000;2023-02-28T16:20:22;20.40;61.30
27016;DHT22;14557;0.000;0.000;2023-02-28T16:22:48;20.40;60.60
27016;DHT22;14557;0.000;0.000;2023-02-28T16:25:15;20.40;60.30
27016;DHT22;14557;0.000;0.000;2023-02-28T16:27:42;20.40;61.70
27016;DHT22;14557;0.000;0.000;2023-02-28T16:30:21;20.40;61.50
27016;DHT22;14557;0.000;0.000;2023-02-28T16:32:48;20.50;61.30
27016;DHT22;14557;0.000;0.000;2023-02-28T16:35:14;20.50;61.20
27016;DHT22;14557;0.000;0.000;2023-02-28T16:37:41;20.50;61.00
27016;DHT22;14557;0.000;0.000;2023-02-28T16:40:18;20.50;60.70
27016;DHT22;14557;0.000;0.000;2023-02-28T16:42:47;20.50;60.70
27016;DHT22;14557;0.000;0.000;2023-02-28T16:45:22;20.50;60.40
27016;DHT22;14557;0.000;0.000;2023-02-28T16:47:48;20.50;59.70
27016;DHT22;14557;0.000;0.000;2023-02-28T16:50:22;20.40;59.50
27016;DHT22;14557;0.000;0.000;2023-02-28T16:52:48;20.40;59.30
27016;DHT22;14557;0.000;0.000;2023-02-28T16:55:15;20.40;59.40
27016;DHT22;14557;0.000;0.000;2023-02-28T16:57:43;20.40;59.20
27016;DHT22;14557;0.000;0.000;2023-02-28T17:00:12;20.40;59.20
27016;DHT22;14557;0.000;0.000;2023-02-28T17:02:38;20.40;59.10
27016;DHT22;14557;0.000;0.000;2023-02-28T17:05:04;20.40;59.20
27016;DHT22;14557;0.000;0.000;2023-02-28T17:07:29;20.40;61.40
27016;DHT22;14557;0.000;0.000;2023-02-28T17:09:55;20.40;60.60
27016;DHT22;14557;0.000;0.000;2023-02-28T17:12:20;20.40;60.20
27016;DHT22;14557;0.000;0.000;2023-02-28T17:14:46;20.40;60.30
27016;DHT22;14557;0.000;0.000;2023-02-28T17:17:15;20.40;60.90
27016;DHT22;14557;0.000;0.000;2023-02-28T17:19:42;20.40;65.00
27016;DHT22;14557;0.000;0.000;2023-02-28T17:22:09;20.40;68.00
27016;DHT22;14557;0.000;0.000;2023-02-28T17:24:35;20.40;65.60
27016;DHT22;14557;0.000;0.000;2023-02-28T17:27:00;20.40;64.10
27016;DHT22;14557;0.000;0.000;2023-02-28T17:29:26;20.40;63.40
27016;DHT22;14557;0.000;0.000;2023-02-28T17:31:52;20.40;62.70
27016;DHT22;14557;0.000;0.000;2023-02-28T17:34:18;20.40;61.60
27016;DHT22;14557;0.000;0.000;2023-02-28T17:36:45;20.40;60.70
27016;DHT22;14557;0.000;0.000;2023-02-28T17:39:12;20.40;60.10
27016;DHT22;14557;0.000;0.000;2023-02-28T17:41:46;20.30;61.00
27016;DHT22;14557;0.000;0.000;2023-02-28T17:44:12;20.30;59.80
27016;DHT22;14557;0.000;0.000;2023-02-28T17:46:37;20.30;59.10
27016;DHT22;14557;0.000;0.000;2023-02-28T17:49:03;20.30;59.00
27016;DHT22;14557;0.000;0.000;2023-02-28T17:51:29;20.30;58.80
27016;DHT22;14557;0.000;0.000;2023-02-28T17:53:55;20.30;58.90
27016;DHT22;14557;0.000;0.000;2023-02-28T17:56:21;20.40;61.30
27016;DHT22;14557;0.000;0.000;2023-02-28T17:58:48;20.40;62.50
27016;DHT22;14557;0.000;0.000;2023-02-28T18:01:14;20.40;65.60
27016;DHT22;14557;0.000;0.000;2023-02-28T18:03:40;20.50;62.20
27016;DHT22;14557;0.000;0.000;2023-02-28T18:06:06;20.50;63.10
27016;DHT22;14557;0.000;0.000;2023-02-28T18:08:31;20.50;65.50
27016;DHT22;14557;0.000;0.000;2023-02-28T18:11:00;20.60;65.10
27016;DHT22;14557;0.000;0.000;2023-02-28T18:13:25;20.60;62.60
27016;DHT22;14557;0.000;0.000;2023-02-28T18:15:53;20.60;61.80
27016;DHT22;14557;0.000;0.000;2023-02-28T18:18:18;20.60;70.40
27016;DHT22;14557;0.000;0.000;2023-02-28T18:20:44;20.70;66.60
27016;DHT22;14557;0.000;0.000;2023-02-28T18:23:09;20.70;66.00
27016;DHT22;14557;0.000;0.000;2023-02-28T18:25:35;20.80;67.20
27016;DHT22;14557;0.000;0.000;2023-02-28T18:28:02;20.90;72.70
27016;DHT22;14557;0.000;0.000;2023-02-28T18:30:31;21.00;71.80
27016;DHT22;14557;0.000;0.000;2023-02-28T18:32:57;21.00;68.40
27016;DHT22;14557;0.000;0.000;2023-02-28T18:35:23;21.00;64.40
27016;DHT22;14557;0.000;0.000;2023-02-28T18:40:30;20.90;61.50
27016;DHT22;14557;0.000;0.000;2023-02-28T18:42:55;20.90;61.90
27016;DHT22;14557;0.000;0.000;2023-02-28T18:45:21;20.90;61.30
27016;DHT22;14557;0.000;0.000;2023-02-28T18:47:46;20.90;60.80